Time;durP1;ratioP1;P1;durP2;ratioP2;P2;SDS_P1;SDS_P2;PMS_P1;PMS_P2;Temp;Humidity;BMP_temperature;BMP_pressure;BME280_temperature;BME280_humidity;BME280_pressure;Samples;Min_cycle;Max_cycle;Signal;HPM_P1;HPM_P2
2022/04/26 03:37:40;;;;;;;;;;;;;;;11.32;81.96;99277.81;4973019;28;609;-57
2022/04/26 03:40:07;;;;;;;;;;;;;;;11.74;79.56;99283.81;4973105;28;1046;-57
2022/04/26 03:42:34;;;;;;;;;;;;;;;12.17;78.05;99302.44;4973040;28;823;-56
2022/04/26 03:45:01;;;;;;;;;;;;;;;12.40;77.73;99316.22;4972943;28;1972;-57
2022/04/26 03:47:28;;;;;;;;;;;;;;;12.51;77.62;99324.31;4972938;28;871;-57
2022/04/26 03:49:54;;;;;;;;;;;;;;;12.53;78.09;99329.44;4975417;28;905;-56
2022/04/26 03:52:21;;;;;;;;;;;;;;;12.49;77.82;99323.97;4977126;28;866;-57
2022/04/26 03:54:48;;;;;;;;;;;;;;;12.49;77.61;99325.97;4959705;28;1325;-57
2022/04/26 03:57:15;;;;;;;;;;;;;;;12.50;77.29;99325.50;4977312;28;827;-56
2022/04/26 03:59:42;;;;;;;;;;;;;;;12.54;77.29;99331.00;4976752;28;831;-57
2022/04/26 04:02:09;;;;;;;;;;;;;;;12.55;77.46;99329.78;4976697;28;898;-56
2022/04/26 04:04:36;;;;;;;;;;;;;;;12.52;77.81;99323.09;4977029;28;1945;-57
2022/04/26 04:07:03;;;;;;;;;;;;;;;12.48;78.03;99316.84;4976848;28;1189;-57
2022/04/26 04:09:30;;;;;;;;;;;;;;;12.51;77.64;99318.78;4976493;28;803;-57
2022/04/26 04:11:56;;;;;;;;;;;;;;;12.61;77.51;99325.28;4976961;28;854;-56
2022/04/26 04:14:23;;;;;;;;;;;;;;;12.74;77.50;99330.97;4976309;28;785;-57
2022/04/26 04:16:50;;;;;;;;;;;;;;;12.88;76.98;99328.66;4976202;28;871;-56
2022/04/26 04:19:20;;;;;;;;;;;;;;;13.13;74.64;99335.66;4976509;28;878;-57
2022/04/26 04:21:49;;;;;;;;;;;;;;;13.32;74.94;99336.84;4976231;28;951;-56
2022/04/26 04:24:15;;;;;;;;;;;;;;;13.34;75.49;99337.19;4976172;28;851;-56
2022/04/26 04:26:42;;;;;;;;;;;;;;;13.42;74.78;99335.00;4976071;28;1947;-57
2022/04/26 04:29:08;;;;;;;;;;;;;;;13.59;75.16;99342.16;4976194;28;823;-57
2022/04/26 04:31:36;;;;;;;;;;;;;;;13.64;75.51;99344.38;4976016;28;820;-56
2022/04/26 04:34:02;;;;;;;;;;;;;;;13.72;76.07;99356.13;4976106;28;995;-56
2022/04/26 04:36:29;;;;;;;;;;;;;;;13.85;75.97;99364.53;4976026;28;799;-57
2022/04/26 04:38:56;;;;;;;;;;;;;;;13.93;75.23;99373.44;4976019;28;804;-57
2022/04/26 04:41:24;;;;;;;;;;;;;;;13.88;74.95;99389.41;4975798;28;899;-56
2022/04/26 04:43:50;;;;;;;;;;;;;;;13.94;74.58;99394.47;4976115;28;827;-57
2022/04/26 04:46:17;;;;;;;;;;;;;;;14.13;73.51;99401.91;4975865;28;1918;-57
2022/04/26 04:48:44;;;;;;;;;;;;;;;14.26;73.72;99402.75;4976273;28;799;-57
2022/04/26 04:51:11;;;;;;;;;;;;;;;14.29;73.22;99407.44;4975932;28;890;-57
2022/04/26 04:53:36;;;;;;;;;;;;;;;14.30;73.29;99413.78;4958458;28;1620;-57
2022/04/26 04:56:03;;;;;;;;;;;;;;;14.32;73.55;99418.88;4976025;28;895;-56
2022/04/26 04:58:30;;;;;;;;;;;;;;;14.38;73.37;99420.72;4975914;28;918;-57
2022/04/26 05:00:57;;;;;;;;;;;;;;;14.43;72.83;99420.19;4975542;28;785;-57
2022/04/26 05:03:24;;;;;;;;;;;;;;;14.47;72.52;99426.44;4975550;28;874;-56
2022/04/26 05:05:51;;;;;;;;;;;;;;;14.37;72.47;99433.03;4975613;28;1890;-56
2022/04/26 05:08:18;;;;;;;;;;;;;;;14.32;72.50;99432.78;4976018;28;879;-57
2022/04/26 05:10:45;;;;;;;;;;;;;;;14.35;72.07;99432.69;4976237;28;764;-57
2022/04/26 05:13:12;;;;;;;;;;;;;;;14.41;70.57;99428.19;4975665;28;846;-57
2022/04/26 05:15:39;;;;;;;;;;;;;;;14.52;70.47;99413.22;4975671;28;804;-57
2022/04/26 05:18:06;;;;;;;;;;;;;;;14.61;70.38;99399.47;4975254;28;804;-57
2022/04/26 05:20:32;;;;;;;;;;;;;;;14.75;67.04;99393.50;4975698;28;804;-57
2022/04/26 05:25:45;;;;;;;;;;;;;;;15.21;61.58;99373.88;4975098;28;1970;-56
2022/04/26 05:28:13;;;;;;;;;;;;;;;15.37;60.94;99375.78;4974788;28;1050;-55
2022/04/26 05:30:40;;;;;;;;;;;;;;;15.54;58.53;99382.03;4974937;28;866;-56
2022/04/26 05:33:07;;;;;;;;;;;;;;;15.80;58.25;99388.38;4974935;28;883;-57
2022/04/26 05:35:32;;;;;;;;;;;;;;;15.82;59.76;99388.69;4974913;28;815;-56
2022/04/26 05:37:59;;;;;;;;;;;;;;;15.76;60.75;99387.69;4974841;28;827;-57
2022/04/26 05:40:26;;;;;;;;;;;;;;;15.75;61.43;99386.16;4974728;28;926;-57
2022/04/26 05:42:53;;;;;;;;;;;;;;;16.24;59.51;99374.56;4974718;28;847;-57
2022/04/26 05:45:21;;;;;;;;;;;;;;;16.94;56.61;99372.41;4974607;28;1923;-57
2022/04/26 05:47:48;;;;;;;;;;;;;;;17.22;56.05;99353.81;4974579;28;855;-57
2022/04/26 05:50:15;;;;;;;;;;;;;;;17.59;54.87;99351.13;4974544;28;973;-57
2022/04/26 05:52:41;;;;;;;;;;;;;;;18.27;55.53;99348.28;4974522;28;828;-57
2022/04/26 05:55:08;;;;;;;;;;;;;;;18.90;51.06;99345.88;4974459;28;907;-57
2022/04/26 05:57:38;;;;;;;;;;;;;;;19.51;49.82;99347.84;4974433;28;847;-57
2022/04/26 06:00:07;;;;;;;;;;;;;;;20.09;48.34;99340.94;4974633;28;837;-57
2022/04/26 06:02:34;;;;;;;;;;;;;;;20.30;46.79;99347.50;4974823;28;815;-57
2022/04/26 06:05:01;;;;;;;;;;;;;;;20.54;46.00;99360.69;4974795;28;1959;-55
2022/04/26 06:07:28;;;;;;;;;;;;;;;20.75;45.33;99372.84;4974390;28;858;-55
2022/04/26 06:09:57;;;;;;;;;;;;;;;21.38;44.19;99378.25;4974364;28;851;-55
2022/04/26 06:12:26;;;;;;;;;;;;;;;21.46;43.61;99367.38;4973551;28;820;-56
2022/04/26 06:14:56;;;;;;;;;;;;;;;21.60;43.02;99372.97;4974127;28;945;-56
2022/04/26 06:17:23;;;;;;;;;;;;;;;21.97;42.17;99380.88;4974286;28;863;-56
2022/04/26 06:19:50;;;;;;;;;;;;;;;23.12;40.43;99378.84;4974000;28;843;-55
2022/04/26 06:22:17;;;;;;;;;;;;;;;24.18;38.20;99375.19;4974325;28;843;-57
2022/04/26 06:24:44;;;;;;;;;;;;;;;24.46;37.01;99366.78;4973803;28;1903;-57
2022/04/26 06:27:11;;;;;;;;;;;;;;;23.74;38.35;99377.22;4973694;28;1431;-56
2022/04/26 06:29:37;;;;;;;;;;;;;;;23.21;38.79;99381.47;4973782;28;855;-57
2022/04/26 06:32:04;;;;;;;;;;;;;;;23.32;36.91;99387.22;4973859;28;894;-57
2022/04/26 06:34:31;;;;;;;;;;;;;;;22.52;36.87;99381.31;4973801;28;898;-58
2022/04/26 06:36:58;;;;;;;;;;;;;;;20.92;40.08;99379.53;4973645;28;871;-57
2022/04/26 06:39:25;;;;;;;;;;;;;;;20.65;40.60;99374.19;4973836;28;819;-56
2022/04/26 06:41:52;;;;;;;;;;;;;;;20.04;42.23;99378.09;4973734;28;824;-56
2022/04/26 06:44:19;;;;;;;;;;;;;;;19.90;42.73;99376.75;4956664;28;859;-57
2022/04/26 06:46:45;;;;;;;;;;;;;;;20.82;42.04;99377.31;4973451;28;1906;-57
2022/04/26 06:49:12;;;;;;;;;;;;;;;21.37;40.61;99377.44;4973562;28;863;-57
2022/04/26 06:51:42;;;;;;;;;;;;;;;21.96;40.60;99381.41;4973471;28;847;-55
2022/04/26 06:54:09;;;;;;;;;;;;;;;22.21;40.09;99388.34;4973475;28;922;-57
2022/04/26 06:56:36;;;;;;;;;;;;;;;22.07;38.49;99380.78;4973379;28;807;-55
2022/04/26 06:59:03;;;;;;;;;;;;;;;21.09;39.89;99388.25;4973654;28;894;-57
2022/04/26 07:01:29;;;;;;;;;;;;;;;21.07;40.18;99395.63;4973306;28;894;-56
2022/04/26 07:03:56;;;;;;;;;;;;;;;20.94;41.90;99393.09;4973318;28;835;-56
2022/04/26 07:06:24;;;;;;;;;;;;;;;21.56;40.99;99391.31;4973118;28;1886;-57
2022/04/26 07:08:50;;;;;;;;;;;;;;;21.27;41.17;99384.44;4973207;28;982;-57
2022/04/26 07:11:17;;;;;;;;;;;;;;;21.00;43.03;99396.78;4973403;28;807;-56
2022/04/26 07:13:44;;;;;;;;;;;;;;;20.86;43.17;99387.09;4973045;28;847;-57
2022/04/26 07:16:11;;;;;;;;;;;;;;;20.82;44.28;99389.31;4973157;28;844;-57
2022/04/26 07:18:37;;;;;;;;;;;;;;;20.74;44.22;99390.94;4973021;28;863;-56
2022/04/26 07:21:04;;;;;;;;;;;;;;;20.69;44.30;99408.47;4973091;28;886;-56
2022/04/26 07:23:30;;;;;;;;;;;;;;;21.19;40.79;99402.97;4972831;28;882;-57
2022/04/26 07:25:58;;;;;;;;;;;;;;;22.14;40.16;99406.44;4972701;28;1886;-56
2022/04/26 07:28:25;;;;;;;;;;;;;;;22.89;38.77;99403.97;4972861;28;919;-57
2022/04/26 07:30:52;;;;;;;;;;;;;;;22.90;38.98;99407.59;4972835;28;907;-55
2022/04/26 07:36:05;;;;;;;;;;;;;;;21.60;41.50;99417.19;4972863;28;693;-55
2022/04/26 07:38:32;;;;;;;;;;;;;;;21.08;41.76;99419.63;4972730;28;899;-56
2022/04/26 07:41:00;;;;;;;;;;;;;;;20.58;41.68;99425.88;4955392;28;1808;-56
2022/04/26 07:43:26;;;;;;;;;;;;;;;20.44;41.48;99426.56;4973036;28;870;-56
2022/04/26 07:45:53;;;;;;;;;;;;;;;20.30;42.32;99434.47;4972711;28;1906;-57
2022/04/26 07:48:22;;;;;;;;;;;;;;;20.54;42.87;99433.69;4972715;28;860;-57
2022/04/26 07:50:48;;;;;;;;;;;;;;;20.91;40.46;99450.22;4972602;28;958;-58
2022/04/26 07:53:15;;;;;;;;;;;;;;;20.85;39.63;99444.53;4972720;28;887;-58
2022/04/26 07:55:42;;;;;;;;;;;;;;;20.98;39.24;99456.25;4972629;28;950;-58
2022/04/26 07:58:10;;;;;;;;;;;;;;;21.80;39.23;99453.03;4972528;28;864;-58
2022/04/26 08:00:37;;;;;;;;;;;;;;;22.87;37.26;99459.28;4972560;28;835;-59
2022/04/26 08:03:05;;;;;;;;;;;;;;;23.30;35.08;99460.25;4972426;28;927;-59
2022/04/26 08:05:32;;;;;;;;;;;;;;;22.85;37.57;99462.59;4972450;28;1947;-58
2022/04/26 08:07:59;;;;;;;;;;;;;;;22.66;37.46;99452.88;4972417;28;910;-58
2022/04/26 08:10:26;;;;;;;;;;;;;;;22.27;37.44;99453.97;4972587;28;819;-58
2022/04/26 08:12:53;;;;;;;;;;;;;;;21.95;39.95;99453.75;4972661;28;891;-57
2022/04/26 08:15:20;;;;;;;;;;;;;;;21.82;39.35;99451.25;4955250;28;846;-57
2022/04/26 08:17:48;;;;;;;;;;;;;;;21.95;40.10;99445.31;4972597;28;840;-58
2022/04/26 08:20:14;;;;;;;;;;;;;;;22.42;37.81;99439.81;4972373;28;975;-57
2022/04/26 08:22:41;;;;;;;;;;;;;;;23.46;38.35;99455.25;4972450;28;1210;-57
2022/04/26 08:27:54;;;;;;;;;;;;;;;23.57;39.17;99455.34;4972175;28;1203;-57
2022/04/26 08:30:21;;;;;;;;;;;;;;;23.33;37.91;99456.44;4972304;28;934;-57
2022/04/26 08:32:48;;;;;;;;;;;;;;;22.68;38.19;99470.06;4972253;28;799;-57
2022/04/26 08:35:16;;;;;;;;;;;;;;;22.22;39.43;99451.81;4973284;28;784;-58
2022/04/26 08:37:44;;;;;;;;;;;;;;;22.83;38.09;99453.88;4975997;28;803;-58
2022/04/26 08:40:11;;;;;;;;;;;;;;;23.10;39.74;99463.91;4958435;28;1303;-57
2022/04/26 08:42:39;;;;;;;;;;;;;;;23.13;37.97;99459.31;4975894;28;875;-58
2022/04/26 08:45:07;;;;;;;;;;;;;;;23.05;39.06;99461.81;4975647;28;1911;-58
2022/04/26 08:53:04;;;;;;;;;;;;;;;23.35;38.95;99445.41;4976025;28;646;-57
2022/04/26 08:55:40;;;;;;;;;;;;;;;23.10;39.64;99451.84;4958266;28;1394;-57
2022/04/26 08:58:10;;;;;;;;;;;;;;;23.24;40.09;99446.09;4975568;28;807;-57
2022/04/26 09:00:37;;;;;;;;;;;;;;;23.41;39.69;99449.06;4975583;28;902;-58
2022/04/26 09:03:05;;;;;;;;;;;;;;;23.32;38.20;99448.47;4975277;28;910;-58
2022/04/26 09:05:32;;;;;;;;;;;;;;;22.79;37.89;99450.50;4975274;28;1890;-57
2022/04/26 09:07:59;;;;;;;;;;;;;;;22.69;40.68;99446.28;4975650;28;862;-57
2022/04/26 09:10:26;;;;;;;;;;;;;;;22.75;39.26;99444.31;4975304;28;920;-57
2022/04/26 09:13:04;;;;;;;;;;;;;;;22.83;39.41;99446.19;4975287;28;780;-57
2022/04/26 09:15:42;;;;;;;;;;;;;;;23.59;39.26;99444.31;4957884;28;1204;-58
2022/04/26 09:18:28;;;;;;;;;;;;;;;23.67;36.40;99439.00;4975144;28;961;-58
2022/04/26 09:20:55;;;;;;;;;;;;;;;23.93;35.96;99444.59;4974991;28;864;-57
2022/04/26 09:23:26;;;;;;;;;;;;;;;23.87;35.13;99455.84;4975034;28;896;-57
2022/04/26 09:25:56;;;;;;;;;;;;;;;23.21;36.14;99452.75;4974988;28;1985;-57
2022/04/26 09:28:27;;;;;;;;;;;;;;;23.29;36.81;99452.28;4975048;28;971;-58
2022/04/26 09:30:54;;;;;;;;;;;;;;;23.19;39.16;99460.13;4974868;28;947;-58
2022/04/26 09:33:38;;;;;;;;;;;;;;;23.06;37.55;99454.88;4974912;28;800;-58
2022/04/26 09:36:09;;;;;;;;;;;;;;;22.90;37.84;99452.66;4975036;28;867;-58
2022/04/26 09:38:39;;;;;;;;;;;;;;;22.90;38.55;99455.47;4974865;28;974;-57
2022/04/26 09:41:08;;;;;;;;;;;;;;;23.08;38.49;99451.56;4974721;28;899;-57
2022/04/26 09:43:36;;;;;;;;;;;;;;;23.36;39.81;99449.78;4957557;28;847;-58
2022/04/26 09:46:04;;;;;;;;;;;;;;;23.24;38.74;99451.75;4974341;28;1911;-58
2022/04/26 09:48:37;;;;;;;;;;;;;;;22.97;38.76;99455.81;4973913;28;855;-57
2022/04/26 09:51:08;;;;;;;;;;;;;;;22.93;38.87;99454.47;4974603;28;812;-57
2022/04/26 09:53:34;;;;;;;;;;;;;;;23.04;39.34;99454.59;4975012;28;831;-57
2022/04/26 09:56:02;;;;;;;;;;;;;;;23.94;37.70;99448.94;4974836;28;784;-57
2022/04/26 10:27:15;;;;;;;;;;;;;;;25.79;34.53;99448.66;5021430;23;2109;-57
2022/04/26 10:29:44;;;;;;;;;;;;;;;25.39;35.90;99444.31;4994043;28;778;-57
2022/04/26 10:32:11;;;;;;;;;;;;;;;25.30;35.63;99442.50;4976185;28;838;-57
2022/04/26 10:34:39;;;;;;;;;;;;;;;25.29;35.96;99448.69;4975945;28;925;-57
2022/04/26 10:37:09;;;;;;;;;;;;;;;25.12;36.32;99452.25;4993188;28;921;-57
2022/04/26 10:39:36;;;;;;;;;;;;;;;24.61;35.76;99449.28;4993071;28;997;-57
2022/04/26 10:42:07;;;;;;;;;;;;;;;24.54;37.71;99449.03;4993130;28;921;-57
2022/04/26 10:44:43;;;;;;;;;;;;;;;24.02;39.17;99447.97;4993062;28;906;-58
2022/04/26 10:47:09;;;;;;;;;;;;;;;24.13;40.73;99452.13;4992984;28;1903;-57
2022/04/26 10:49:39;;;;;;;;;;;;;;;23.90;38.03;99460.47;4992835;28;862;-57
2022/04/26 10:52:17;;;;;;;;;;;;;;;23.77;39.31;99460.91;4993591;28;854;-58
2022/04/26 10:57:15;;;;;;;;;;;;;;;24.20;39.26;99454.50;4992816;28;796;-57
2022/04/26 10:59:54;;;;;;;;;;;;;;;24.75;38.77;99455.25;4992502;28;815;-57
2022/04/26 11:02:21;;;;;;;;;;;;;;;25.12;38.86;99457.13;4992670;28;921;-57
2022/04/26 11:04:54;;;;;;;;;;;;;;;25.33;35.54;99460.50;4992629;28;1941;-57
2022/04/26 11:07:25;;;;;;;;;;;;;;;25.20;33.24;99458.19;4992578;28;929;-57
2022/04/26 11:09:53;;;;;;;;;;;;;;;25.29;32.38;99463.59;4992576;28;879;-57
2022/04/26 11:12:21;;;;;;;;;;;;;;;25.16;31.84;99461.25;4992472;28;1085;-58
2022/04/26 11:14:49;;;;;;;;;;;;;;;24.94;34.58;99459.13;4975178;28;820;-57
2022/04/26 11:17:17;;;;;;;;;;;;;;;24.79;33.33;99448.09;4992419;28;895;-57
2022/04/26 11:19:50;;;;;;;;;;;;;;;24.80;35.69;99452.44;4992598;28;1048;-57
2022/04/26 11:22:18;;;;;;;;;;;;;;;25.05;34.40;99453.53;4992695;28;835;-58
2022/04/26 11:30:25;;;;;;;;;;;;;;;25.86;33.55;99450.19;4992696;28;633;-58
2022/04/26 11:32:55;;;;;;;;;;;;;;;26.02;31.03;99451.47;4992337;28;873;-58
2022/04/26 11:35:21;;;;;;;;;;;;;;;26.10;33.12;99452.50;4992255;28;894;-58
2022/04/26 11:37:49;;;;;;;;;;;;;;;26.20;32.34;99455.78;4992228;28;886;-58
2022/04/26 11:40:28;;;;;;;;;;;;;;;26.07;33.95;99451.47;4992221;28;883;-58
2022/04/26 11:42:57;;;;;;;;;;;;;;;26.28;32.67;99457.56;4992110;28;918;-58
2022/04/26 11:45:28;;;;;;;;;;;;;;;26.44;32.59;99453.16;4992007;28;1910;-57
2022/04/26 11:47:56;;;;;;;;;;;;;;;26.53;31.60;99451.31;4992087;28;918;-58
2022/04/26 11:50:23;;;;;;;;;;;;;;;26.77;30.36;99445.03;4992182;28;831;-58
2022/04/26 11:52:50;;;;;;;;;;;;;;;27.35;30.49;99441.31;4992149;28;905;-58
2022/04/26 11:55:24;;;;;;;;;;;;;;;28.01;31.63;99439.16;4991952;28;1006;-58
2022/04/26 11:57:53;;;;;;;;;;;;;;;28.58;28.50;99427.16;4992071;28;874;-59
2022/04/26 12:00:21;;;;;;;;;;;;;;;28.74;28.93;99436.75;4992098;28;839;-58
2022/04/26 12:02:48;;;;;;;;;;;;;;;28.71;27.68;99435.75;4992036;28;854;-58
2022/04/26 12:05:15;;;;;;;;;;;;;;;28.88;27.85;99446.88;4992148;28;1952;-58
2022/04/26 12:07:42;;;;;;;;;;;;;;;28.94;34.68;99433.34;4992365;28;913;-56
2022/04/26 12:10:27;;;;;;;;;;;;;;;28.34;35.75;99434.41;4993334;28;760;-58
2022/04/26 12:12:56;;;;;;;;;;;;;;;27.62;37.06;99440.28;4995756;28;851;-58
2022/04/26 12:15:30;;;;;;;;;;;;;;;27.31;36.93;99437.97;4995762;28;832;-58
2022/04/26 12:18:10;;;;;;;;;;;;;;;26.83;37.88;99435.19;4995750;28;980;-59
2022/04/26 12:20:38;;;;;;;;;;;;;;;26.56;38.35;99436.88;4995627;28;886;-58
2022/04/26 12:23:06;;;;;;;;;;;;;;;26.54;39.58;99439.44;4995847;28;914;-58
2022/04/26 12:25:33;;;;;;;;;;;;;;;26.48;38.94;99441.53;4995647;28;1965;-58
2022/04/26 12:28:06;;;;;;;;;;;;;;;26.33;39.96;99438.25;4996290;28;859;-58
2022/04/26 12:30:33;;;;;;;;;;;;;;;26.32;39.69;99442.38;4995626;28;842;-58
2022/04/26 12:33:00;;;;;;;;;;;;;;;26.41;39.94;99448.50;4995537;28;893;-58
2022/04/26 12:35:27;;;;;;;;;;;;;;;26.33;38.42;99450.38;4995560;28;858;-58
2022/04/26 12:38:09;;;;;;;;;;;;;;;26.10;38.48;99429.06;4995470;28;869;-58
2022/04/26 12:40:36;;;;;;;;;;;;;;;26.26;38.97;99431.06;4978444;28;1620;-58
2022/04/26 12:43:23;;;;;;;;;;;;;;;26.34;38.58;99440.56;4995964;28;842;-58
2022/04/26 12:46:06;;;;;;;;;;;;;;;26.33;36.93;99436.19;4995237;28;2003;-58
2022/04/26 12:51:24;;;;;;;;;;;;;;;26.24;37.79;99430.81;4995497;28;630;-58
2022/04/26 12:53:52;;;;;;;;;;;;;;;26.20;38.29;99438.81;4994986;28;902;-58
2022/04/26 12:56:19;;;;;;;;;;;;;;;26.12;38.20;99434.97;4995239;28;807;-58
2022/04/26 12:58:47;;;;;;;;;;;;;;;26.07;39.17;99437.31;4995120;28;1119;-58
2022/04/26 13:01:15;;;;;;;;;;;;;;;26.16;38.51;99441.94;4995245;28;835;-58
2022/04/26 13:03:42;;;;;;;;;;;;;;;25.83;40.52;99435.00;4995300;28;768;-58
2022/04/26 13:06:10;;;;;;;;;;;;;;;25.82;40.67;99439.16;4994896;28;1953;-58
2022/04/26 13:08:40;;;;;;;;;;;;;;;25.60;40.27;99439.16;4995192;28;834;-58
2022/04/26 13:11:07;;;;;;;;;;;;;;;25.39;40.83;99441.47;4994992;28;866;-58
2022/04/26 13:13:35;;;;;;;;;;;;;;;25.38;41.00;99439.94;4994608;28;872;-58
2022/04/26 13:16:02;;;;;;;;;;;;;;;25.32;39.95;99434.28;4994724;28;882;-58
2022/04/26 13:18:29;;;;;;;;;;;;;;;24.90;40.10;99443.72;4994671;28;827;-58
2022/04/26 13:20:57;;;;;;;;;;;;;;;24.44;41.29;99437.91;4994405;28;930;-58
2022/04/26 13:23:24;;;;;;;;;;;;;;;24.44;42.55;99437.13;4994391;28;847;-58
2022/04/26 13:25:50;;;;;;;;;;;;;;;24.75;41.50;99444.72;4994560;28;1874;-57
2022/04/26 13:28:16;;;;;;;;;;;;;;;24.72;41.90;99431.59;4994839;28;799;-58
2022/04/26 13:30:44;;;;;;;;;;;;;;;24.64;41.51;99442.66;4994752;28;878;-58
2022/04/26 13:33:11;;;;;;;;;;;;;;;24.52;41.41;99435.41;4994449;28;866;-57
2022/04/26 13:35:38;;;;;;;;;;;;;;;24.50;42.11;99437.97;4994231;28;889;-57
2022/04/26 13:38:12;;;;;;;;;;;;;;;24.58;42.16;99441.84;4994225;28;943;-58
2022/04/26 13:40:40;;;;;;;;;;;;;;;24.71;42.12;99432.09;4994306;28;871;-58
2022/04/26 13:43:08;;;;;;;;;;;;;;;24.49;41.68;99435.63;4994190;28;875;-58
2022/04/26 13:45:35;;;;;;;;;;;;;;;24.22;42.14;99430.13;4994163;28;1914;-58
2022/04/26 13:48:08;;;;;;;;;;;;;;;24.34;43.11;99436.56;4994105;28;870;-58
2022/04/26 13:50:35;;;;;;;;;;;;;;;24.34;42.67;99435.81;4994098;28;861;-58
2022/04/26 13:53:01;;;;;;;;;;;;;;;24.12;41.52;99444.94;4993914;28;890;-58
2022/04/26 13:55:28;;;;;;;;;;;;;;;23.96;42.51;99438.72;4994017;28;863;-58
2022/04/26 13:57:55;;;;;;;;;;;;;;;23.99;42.06;99443.34;4993862;28;883;-57
2022/04/26 14:00:22;;;;;;;;;;;;;;;23.95;43.13;99445.63;4993985;28;862;-58
2022/04/26 14:02:49;;;;;;;;;;;;;;;23.86;42.13;99439.41;4993838;28;819;-57
2022/04/26 14:05:16;;;;;;;;;;;;;;;23.66;42.34;99443.84;4993904;28;1963;-58
2022/04/26 14:07:44;;;;;;;;;;;;;;;23.41;42.95;99451.13;4993748;28;817;-57
2022/04/26 14:10:11;;;;;;;;;;;;;;;23.43;44.35;99454.22;4993755;28;835;-58
2022/04/26 14:12:38;;;;;;;;;;;;;;;23.61;43.06;99450.25;4993697;28;858;-57
2022/04/26 14:23:20;;;;;;;;;;;;;;;23.62;41.50;99468.72;4993801;28;613;-57
2022/04/26 14:25:47;;;;;;;;;;;;;;;23.68;43.24;99465.94;4993290;28;1963;-57
2022/04/26 14:28:14;;;;;;;;;;;;;;;23.71;43.19;99468.53;4993366;28;1172;-57
2022/04/26 14:30:40;;;;;;;;;;;;;;;23.71;41.92;99471.34;4993341;28;834;-57
2022/04/26 14:33:07;;;;;;;;;;;;;;;23.67;41.91;99470.81;4992657;28;846;-58
2022/04/26 14:35:35;;;;;;;;;;;;;;;23.48;41.71;99459.13;4993294;28;827;-57
2022/04/26 14:38:00;;;;;;;;;;;;;;;23.46;41.58;99466.53;4993119;28;1034;-57
2022/04/26 14:40:27;;;;;;;;;;;;;;;23.51;42.03;99463.75;4993082;28;934;-57
2022/04/26 14:42:54;;;;;;;;;;;;;;;23.68;41.29;99463.09;4993050;28;875;-57
2022/04/26 14:45:21;;;;;;;;;;;;;;;23.64;41.01;99460.50;4993038;28;1975;-57
2022/04/26 14:47:49;;;;;;;;;;;;;;;24.06;41.41;99453.38;4992910;28;902;-58
2022/04/26 14:50:18;;;;;;;;;;;;;;;24.49;39.43;99446.94;4992789;28;984;-58
2022/04/26 14:52:44;;;;;;;;;;;;;;;24.38;39.65;99464.59;4992850;28;863;-58
2022/04/26 14:55:11;;;;;;;;;;;;;;;24.11;40.47;99468.81;4992983;28;866;-58
2022/04/26 14:57:38;;;;;;;;;;;;;;;24.15;38.61;99469.34;4992850;28;811;-58
2022/04/26 15:00:06;;;;;;;;;;;;;;;24.15;39.12;99466.50;4975379;28;1379;-58
2022/04/26 15:02:38;;;;;;;;;;;;;;;24.24;38.94;99474.81;4993017;28;863;-57
2022/04/26 15:05:08;;;;;;;;;;;;;;;24.12;37.35;99473.94;4992587;28;1951;-58
2022/04/26 15:10:20;;;;;;;;;;;;;;;23.39;39.56;99491.09;4992994;28;704;-58
2022/04/26 15:18:17;;;;;;;;;;;;;;;19.94;44.73;99497.97;4992509;28;709;-57
2022/04/26 15:20:50;;;;;;;;;;;;;;;19.38;46.77;99499.38;4992559;28;865;-57
2022/04/26 15:23:18;;;;;;;;;;;;;;;18.94;48.54;99500.50;4992444;28;1102;-58
2022/04/26 15:25:50;;;;;;;;;;;;;;;18.63;49.32;99499.88;4992358;28;1890;-57
2022/04/26 15:28:18;;;;;;;;;;;;;;;18.52;49.87;99500.31;4992413;28;958;-58
2022/04/26 15:30:45;;;;;;;;;;;;;;;18.44;49.77;99499.09;4992329;28;1202;-57
2022/04/26 15:33:12;;;;;;;;;;;;;;;18.29;50.01;99498.91;4992391;28;847;-58
2022/04/26 15:35:39;;;;;;;;;;;;;;;18.15;50.86;99495.44;4992362;28;858;-57
2022/04/26 15:38:10;;;;;;;;;;;;;;;18.15;51.13;99492.63;4974810;28;1256;-57
2022/04/26 15:40:41;;;;;;;;;;;;;;;17.94;51.56;99493.50;4992145;28;951;-57
2022/04/26 15:43:07;;;;;;;;;;;;;;;17.98;51.95;99496.94;4974986;28;808;-57
2022/04/26 15:45:36;;;;;;;;;;;;;;;18.59;50.60;99488.06;4991132;28;1973;-56
2022/04/26 15:48:03;;;;;;;;;;;;;;;19.52;48.63;99483.91;4992105;28;922;-57
2022/04/26 15:50:29;;;;;;;;;;;;;;;20.28;46.79;99486.72;4974873;28;875;-57
2022/04/26 15:52:56;;;;;;;;;;;;;;;19.85;47.36;99486.78;4992175;28;932;-57
2022/04/26 15:55:22;;;;;;;;;;;;;;;20.08;46.45;99484.50;4992388;28;799;-57
2022/04/26 15:57:50;;;;;;;;;;;;;;;19.94;47.02;99488.78;4992097;28;897;-57
2022/04/26 16:00:18;;;;;;;;;;;;;;;19.69;47.70;99496.31;4992027;28;1031;-57
2022/04/26 16:02:44;;;;;;;;;;;;;;;19.69;48.12;99498.34;4992297;28;995;-57
2022/04/26 16:05:12;;;;;;;;;;;;;;;19.59;47.74;99489.97;4992107;28;1906;-57
2022/04/26 16:07:40;;;;;;;;;;;;;;;19.35;48.19;99491.91;4991981;28;916;-56
2022/04/26 16:21:07;;;;;;;;;;;;;;;17.49;51.79;99514.38;4992125;28;626;-57
2022/04/26 16:23:35;;;;;;;;;;;;;;;17.14;53.49;99520.84;4991962;28;930;-57
2022/04/26 16:26:02;;;;;;;;;;;;;;;16.66;54.60;99497.00;4991984;28;1910;-57
2022/04/26 16:28:34;;;;;;;;;;;;;;;16.57;55.43;99522.03;4992090;28;807;-57
2022/04/26 16:31:03;;;;;;;;;;;;;;;16.25;56.45;99523.88;4991661;28;938;-57
2022/04/26 16:33:30;;;;;;;;;;;;;;;15.96;57.27;99527.59;4991745;28;941;-57
2022/04/26 16:35:57;;;;;;;;;;;;;;;15.83;57.90;99532.34;4991707;28;834;-56
2022/04/26 16:38:27;;;;;;;;;;;;;;;15.60;58.34;99527.88;4991899;28;862;-57
2022/04/26 16:40:56;;;;;;;;;;;;;;;15.36;59.88;99528.13;4991590;28;898;-57
2022/04/26 16:43:24;;;;;;;;;;;;;;;15.15;61.90;99539.88;4991631;28;886;-56
2022/04/26 16:45:51;;;;;;;;;;;;;;;14.90;64.12;99550.47;4991485;28;1906;-57
2022/04/26 16:48:18;;;;;;;;;;;;;;;14.61;65.24;99547.66;4991456;28;1049;-56
2022/04/26 16:50:44;;;;;;;;;;;;;;;14.35;66.09;99549.47;4991617;28;808;-56
2022/04/26 16:53:11;;;;;;;;;;;;;;;14.16;67.56;99550.31;4991517;28;927;-56
2022/04/26 16:55:38;;;;;;;;;;;;;;;13.99;68.12;99558.63;4991612;28;839;-56
2022/04/26 16:58:05;;;;;;;;;;;;;;;13.93;69.43;99565.13;4994998;28;819;-56
2022/04/26 17:00:31;;;;;;;;;;;;;;;13.80;70.68;99560.25;4995028;28;811;-56
2022/04/26 17:02:57;;;;;;;;;;;;;;;13.60;71.30;99554.72;4995160;28;850;-56
2022/04/26 17:05:23;;;;;;;;;;;;;;;13.42;71.87;99552.34;4994929;28;1936;-56
2022/04/26 17:07:50;;;;;;;;;;;;;;;13.32;72.23;99552.56;4994890;28;882;-57
2022/04/26 17:10:18;;;;;;;;;;;;;;;13.23;71.74;99556.66;4994782;28;926;-56
2022/04/26 17:12:48;;;;;;;;;;;;;;;13.16;71.76;99565.09;4994856;28;811;-56
2022/04/26 17:15:16;;;;;;;;;;;;;;;13.14;71.90;99569.50;4994638;28;907;-56
2022/04/26 17:17:44;;;;;;;;;;;;;;;13.17;72.38;99565.91;4994946;28;894;-56
2022/04/26 17:20:14;;;;;;;;;;;;;;;13.22;73.06;99562.63;4994543;28;926;-56
2022/04/26 17:22:42;;;;;;;;;;;;;;;13.20;73.00;99562.25;4994606;28;863;-56
2022/04/26 17:25:16;;;;;;;;;;;;;;;13.18;72.97;99568.22;4994762;28;1946;-56
2022/04/26 17:27:44;;;;;;;;;;;;;;;13.22;72.83;99574.50;4994435;28;1285;-56
2022/04/26 17:30:12;;;;;;;;;;;;;;;13.30;72.49;99577.19;4994375;28;926;-56
2022/04/26 17:32:39;;;;;;;;;;;;;;;13.39;72.05;99577.38;4994526;28;838;-56
2022/04/26 17:35:07;;;;;;;;;;;;;;;13.53;71.27;99585.44;4994608;28;826;-56
2022/04/26 17:37:34;;;;;;;;;;;;;;;13.66;70.62;99591.91;4994440;28;818;-56
2022/04/26 17:40:00;;;;;;;;;;;;;;;13.80;70.32;99601.13;4994279;28;839;-56
2022/04/26 17:42:28;;;;;;;;;;;;;;;13.89;69.88;99601.34;4994252;28;882;-56
2022/04/26 17:44:56;;;;;;;;;;;;;;;13.92;69.64;99603.25;4994238;28;894;-56
2022/04/26 17:47:23;;;;;;;;;;;;;;;13.93;70.06;99607.59;4976619;28;1966;-56
2022/04/26 17:49:50;;;;;;;;;;;;;;;13.91;70.42;99607.25;4976627;28;1634;-56
2022/04/26 17:52:17;;;;;;;;;;;;;;;13.83;71.06;99605.84;4994134;28;839;-56
2022/04/26 17:57:30;;;;;;;;;;;;;;;13.80;70.78;99606.69;4953370;28;1190;-57
2022/04/26 17:59:57;;;;;;;;;;;;;;;13.75;71.41;99605.19;4994184;28;870;-56
2022/04/26 18:02:24;;;;;;;;;;;;;;;13.72;71.76;99605.28;4993896;28;827;-57
2022/04/26 18:04:49;;;;;;;;;;;;;;;13.67;72.16;99603.78;4993879;28;795;-56
2022/04/26 18:07:16;;;;;;;;;;;;;;;13.59;72.38;99605.94;4993358;28;1882;-57
2022/04/26 18:09:43;;;;;;;;;;;;;;;13.52;72.71;99610.84;4993208;28;912;-57